sensor_id;sensor_type;location;lat;lon;timestamp;temperature;humidity
8043;DHT22;4064;48.132;11.366;2023-10-09T00:01:43;13.40;99.90
8043;DHT22;4064;48.132;11.366;2023-10-09T00:04:12;13.40;99.90
8043;DHT22;4064;48.132;11.366;2023-10-09T00:06:40;13.40;99.90
8043;DHT22;4064;48.132;11.366;2023-10-09T00:09:07;13.40;99.90
8043;DHT22;4064;48.132;11.366;2023-10-09T00:11:48;13.40;99.90
8043;DHT22;4064;48.132;11.366;2023-10-09T00:14:14;13.40;99.90
8043;DHT22;4064;48.132;11.366;2023-10-09T00:16:44;13.40;99.90
8043;DHT22;4064;48.132;11.366;2023-10-09T00:19:14;13.50;99.90
8043;DHT22;4064;48.132;11.366;2023-10-09T00:21:49;13.50;99.90
8043;DHT22;4064;48.132;11.366;2023-10-09T00:24:16;13.40;99.90
8043;DHT22;4064;48.132;11.366;2023-10-09T00:26:54;13.40;99.90
8043;DHT22;4064;48.132;11.366;2023-10-09T00:29:21;13.50;99.90
8043;DHT22;4064;48.132;11.366;2023-10-09T00:31:54;13.50;99.90
8043;DHT22;4064;48.132;11.366;2023-10-09T00:34:38;13.60;99.90
8043;DHT22;4064;48.132;11.366;2023-10-09T00:37:08;13.50;99.90
8043;DHT22;4064;48.132;11.366;2023-10-09T00:39:51;13.50;99.90
8043;DHT22;4064;48.132;11.366;2023-10-09T00:42:24;13.60;99.90
8043;DHT22;4064;48.132;11.366;2023-10-09T00:44:58;13.60;99.90
8043;DHT22;4064;48.132;11.366;2023-10-09T00:47:34;13.70;99.90
8043;DHT22;4064;48.132;11.366;2023-10-09T00:50:03;13.70;99.90
8043;DHT22;4064;48.132;11.366;2023-10-09T00:52:37;13.70;99.90
8043;DHT22;4064;48.132;11.366;2023-10-09T00:55:05;13.70;99.90
8043;DHT22;4064;48.132;11.366;2023-10-09T00:57:41;13.70;99.90
8043;DHT22;4064;48.132;11.366;2023-10-09T01:00:13;13.70;99.90
8043;DHT22;4064;48.132;11.366;2023-10-09T01:03:02;13.80;99.90
8043;DHT22;4064;48.132;11.366;2023-10-09T01:05:54;13.70;99.90
8043;DHT22;4064;48.132;11.366;2023-10-09T01:08:27;13.70;99.90
8043;DHT22;4064;48.132;11.366;2023-10-09T01:10:58;13.70;99.90
8043;DHT22;4064;48.132;11.366;2023-10-09T01:13:38;13.50;99.90
8043;DHT22;4064;48.132;11.366;2023-10-09T01:16:07;13.50;99.90
8043;DHT22;4064;48.132;11.366;2023-10-09T01:18:40;13.40;99.90
8043;DHT22;4064;48.132;11.366;2023-10-09T01:21:07;13.50;99.90
8043;DHT22;4064;48.132;11.366;2023-10-09T01:23:32;13.60;99.90
8043;DHT22;4064;48.132;11.366;2023-10-09T01:25:58;13.70;99.90
8043;DHT22;4064;48.132;11.366;2023-10-09T01:28:24;13.60;99.90
8043;DHT22;4064;48.132;11.366;2023-10-09T01:30:51;13.60;99.90
8043;DHT22;4064;48.132;11.366;2023-10-09T01:33:17;13.80;99.90
8043;DHT22;4064;48.132;11.366;2023-10-09T01:35:49;13.80;99.90
8043;DHT22;4064;48.132;11.366;2023-10-09T01:38:28;14.00;99.90
8043;DHT22;4064;48.132;11.366;2023-10-09T01:41:15;13.90;99.90
8043;DHT22;4064;48.132;11.366;2023-10-09T01:43:41;13.90;99.90
8043;DHT22;4064;48.132;11.366;2023-10-09T01:46:13;14.00;99.90
8043;DHT22;4064;48.132;11.366;2023-10-09T01:48:42;14.10;99.90
8043;DHT22;4064;48.132;11.366;2023-10-09T01:51:15;14.20;99.90
8043;DHT22;4064;48.132;11.366;2023-10-09T01:53:44;14.30;99.90
8043;DHT22;4064;48.132;11.366;2023-10-09T01:56:11;14.30;99.90
8043;DHT22;4064;48.132;11.366;2023-10-09T01:58:43;14.40;99.90
8043;DHT22;4064;48.132;11.366;2023-10-09T02:01:13;14.40;99.90
8043;DHT22;4064;48.132;11.366;2023-10-09T02:03:40;14.50;99.90
8043;DHT22;4064;48.132;11.366;2023-10-09T02:06:09;14.60;99.90
8043;DHT22;4064;48.132;11.366;2023-10-09T02:08:58;14.70;99.90
8043;DHT22;4064;48.132;11.366;2023-10-09T02:11:25;14.80;99.90
8043;DHT22;4064;48.132;11.366;2023-10-09T02:14:12;14.80;99.90
8043;DHT22;4064;48.132;11.366;2023-10-09T02:16:49;14.80;99.90
8043;DHT22;4064;48.132;11.366;2023-10-09T02:19:33;14.80;99.90
8043;DHT22;4064;48.132;11.366;2023-10-09T02:22:00;14.90;99.90
8043;DHT22;4064;48.132;11.366;2023-10-09T02:24:43;14.90;99.90
8043;DHT22;4064;48.132;11.366;2023-10-09T02:27:23;15.00;99.90
8043;DHT22;4064;48.132;11.366;2023-10-09T02:30:08;15.00;99.90
8043;DHT22;4064;48.132;11.366;2023-10-09T02:32:53;15.10;99.90
8043;DHT22;4064;48.132;11.366;2023-10-09T02:35:24;15.10;99.90
8043;DHT22;4064;48.132;11.366;2023-10-09T02:38:08;15.00;99.90
8043;DHT22;4064;48.132;11.366;2023-10-09T02:40:37;15.00;99.90
8043;DHT22;4064;48.132;11.366;2023-10-09T02:43:12;15.10;99.90
8043;DHT22;4064;48.132;11.366;2023-10-09T02:45:43;15.00;99.90
8043;DHT22;4064;48.132;11.366;2023-10-09T02:48:18;15.00;99.90
8043;DHT22;4064;48.132;11.366;2023-10-09T02:50:51;15.00;99.90
8043;DHT22;4064;48.132;11.366;2023-10-09T02:53:17;15.00;99.90
8043;DHT22;4064;48.132;11.366;2023-10-09T02:55:46;15.10;99.90
8043;DHT22;4064;48.132;11.366;2023-10-09T02:58:51;15.10;99.90
8043;DHT22;4064;48.132;11.366;2023-10-09T03:01:17;15.00;99.90
8043;DHT22;4064;48.132;11.366;2023-10-09T03:03:42;15.00;99.90
8043;DHT22;4064;48.132;11.366;2023-10-09T03:06:15;15.00;99.90
8043;DHT22;4064;48.132;11.366;2023-10-09T03:08:49;15.00;99.90
8043;DHT22;4064;48.132;11.366;2023-10-09T03:11:16;15.00;99.90
8043;DHT22;4064;48.132;11.366;2023-10-09T03:13:42;15.00;99.90
8043;DHT22;4064;48.132;11.366;2023-10-09T03:16:09;15.00;99.90
8043;DHT22;4064;48.132;11.366;2023-10-09T03:18:41;15.00;99.90
8043;DHT22;4064;48.132;11.366;2023-10-09T03:21:08;15.00;99.90
8043;DHT22;4064;48.132;11.366;2023-10-09T03:23:35;14.90;99.90
8043;DHT22;4064;48.132;11.366;2023-10-09T03:26:00;14.90;99.90
8043;DHT22;4064;48.132;11.366;2023-10-09T03:28:26;14.90;99.90
8043;DHT22;4064;48.132;11.366;2023-10-09T03:30:52;14.80;99.90
8043;DHT22;4064;48.132;11.366;2023-10-09T03:33:18;14.90;99.90
8043;DHT22;4064;48.132;11.366;2023-10-09T03:35:44;14.90;99.90
8043;DHT22;4064;48.132;11.366;2023-10-09T03:38:10;14.90;99.90
8043;DHT22;4064;48.132;11.366;2023-10-09T03:40:42;14.90;99.90
8043;DHT22;4064;48.132;11.366;2023-10-09T03:43:11;14.90;99.90
8043;DHT22;4064;48.132;11.366;2023-10-09T03:45:37;15.00;99.90
8043;DHT22;4064;48.132;11.366;2023-10-09T03:48:10;15.00;99.90
8043;DHT22;4064;48.132;11.366;2023-10-09T03:50:46;15.10;99.90
8043;DHT22;4064;48.132;11.366;2023-10-09T03:53:13;15.00;99.90
8043;DHT22;4064;48.132;11.366;2023-10-09T03:55:40;15.00;99.90
8043;DHT22;4064;48.132;11.366;2023-10-09T03:58:09;15.00;99.90
8043;DHT22;4064;48.132;11.366;2023-10-09T04:00:39;15.00;99.90
8043;DHT22;4064;48.132;11.366;2023-10-09T04:03:11;15.10;99.90
8043;DHT22;4064;48.132;11.366;2023-10-09T04:05:37;15.00;99.90
8043;DHT22;4064;48.132;11.366;2023-10-09T04:08:07;15.10;99.90
8043;DHT22;4064;48.132;11.366;2023-10-09T04:10:52;15.20;99.90
8043;DHT22;4064;48.132;11.366;2023-10-09T04:13:19;15.20;99.90
8043;DHT22;4064;48.132;11.366;2023-10-09T04:15:50;15.20;99.90
8043;DHT22;4064;48.132;11.366;2023-10-09T04:18:19;15.20;99.90
8043;DHT22;4064;48.132;11.366;2023-10-09T04:20:46;15.10;99.90
8043;DHT22;4064;48.132;11.366;2023-10-09T04:23:41;14.90;99.90
8043;DHT22;4064;48.132;11.366;2023-10-09T04:26:25;14.70;99.90
8043;DHT22;4064;48.132;11.366;2023-10-09T04:28:51;14.40;99.90
8043;DHT22;4064;48.132;11.366;2023-10-09T04:31:21;14.40;99.90
8043;DHT22;4064;48.132;11.366;2023-10-09T04:33:58;14.30;99.90
8043;DHT22;4064;48.132;11.366;2023-10-09T04:36:43;14.10;99.90
8043;DHT22;4064;48.132;11.366;2023-10-09T04:39:12;14.00;99.90
8043;DHT22;4064;48.132;11.366;2023-10-09T04:41:38;13.90;99.90
8043;DHT22;4064;48.132;11.366;2023-10-09T04:44:06;13.80;99.90
8043;DHT22;4064;48.132;11.366;2023-10-09T04:46:48;13.70;99.90
8043;DHT22;4064;48.132;11.366;2023-10-09T04:49:34;13.60;99.90
8043;DHT22;4064;48.132;11.366;2023-10-09T04:52:19;13.60;99.90
8043;DHT22;4064;48.132;11.366;2023-10-09T04:55:11;13.50;99.90
8043;DHT22;4064;48.132;11.366;2023-10-09T04:57:44;13.50;99.90
8043;DHT22;4064;48.132;11.366;2023-10-09T05:00:17;13.40;99.90
8043;DHT22;4064;48.132;11.366;2023-10-09T05:05:22;13.30;99.90
8043;DHT22;4064;48.132;11.366;2023-10-09T05:11:03;13.20;99.90
8043;DHT22;4064;48.132;11.366;2023-10-09T05:13:34;13.20;99.90
8043;DHT22;4064;48.132;11.366;2023-10-09T05:18:55;13.10;99.90
8043;DHT22;4064;48.132;11.366;2023-10-09T05:21:52;13.00;99.90
8043;DHT22;4064;48.132;11.366;2023-10-09T05:24:18;13.00;99.90
8043;DHT22;4064;48.132;11.366;2023-10-09T05:26:49;12.90;99.90
8043;DHT22;4064;48.132;11.366;2023-10-09T05:31:54;12.80;99.90
8043;DHT22;4064;48.132;11.366;2023-10-09T05:34:29;12.80;99.90
8043;DHT22;4064;48.132;11.366;2023-10-09T05:37:05;12.70;99.90
8043;DHT22;4064;48.132;11.366;2023-10-09T05:39:48;12.70;99.90
8043;DHT22;4064;48.132;11.366;2023-10-09T05:42:34;12.70;99.90
8043;DHT22;4064;48.132;11.366;2023-10-09T05:47:45;12.80;99.90
8043;DHT22;4064;48.132;11.366;2023-10-09T05:50:29;12.70;99.90
8043;DHT22;4064;48.132;11.366;2023-10-09T05:52:58;12.80;99.90
8043;DHT22;4064;48.132;11.366;2023-10-09T05:55:28;12.80;99.90
8043;DHT22;4064;48.132;11.366;2023-10-09T05:58:12;12.80;99.90
8043;DHT22;4064;48.132;11.366;2023-10-09T06:00:57;12.80;99.90
8043;DHT22;4064;48.132;11.366;2023-10-09T06:03:41;12.90;99.90
8043;DHT22;4064;48.132;11.366;2023-10-09T06:06:30;13.00;99.90
8043;DHT22;4064;48.132;11.366;2023-10-09T06:09:05;13.00;99.90
8043;DHT22;4064;48.132;11.366;2023-10-09T06:11:45;13.10;99.90
8043;DHT22;4064;48.132;11.366;2023-10-09T06:14:32;13.10;99.90
8043;DHT22;4064;48.132;11.366;2023-10-09T06:17:00;13.30;99.90
8043;DHT22;4064;48.132;11.366;2023-10-09T06:19:27;13.30;99.90
8043;DHT22;4064;48.132;11.366;2023-10-09T06:21:54;13.40;99.90
8043;DHT22;4064;48.132;11.366;2023-10-09T06:24:30;13.50;99.90
8043;DHT22;4064;48.132;11.366;2023-10-09T06:27:07;13.60;99.90
8043;DHT22;4064;48.132;11.366;2023-10-09T06:29:33;13.80;99.90
8043;DHT22;4064;48.132;11.366;2023-10-09T06:32:06;14.00;99.90
8043;DHT22;4064;48.132;11.366;2023-10-09T06:34:50;14.30;99.90
8043;DHT22;4064;48.132;11.366;2023-10-09T06:37:23;14.70;99.90
8043;DHT22;4064;48.132;11.366;2023-10-09T06:39:54;15.00;99.90
8043;DHT22;4064;48.132;11.366;2023-10-09T06:42:24;15.20;99.90
8043;DHT22;4064;48.132;11.366;2023-10-09T06:47:55;15.60;99.90
8043;DHT22;4064;48.132;11.366;2023-10-09T06:50:39;15.90;99.90
8043;DHT22;4064;48.132;11.366;2023-10-09T06:53:24;16.00;99.90
8043;DHT22;4064;48.132;11.366;2023-10-09T06:56:10;16.10;99.90
8043;DHT22;4064;48.132;11.366;2023-10-09T06:58:49;16.20;99.90
8043;DHT22;4064;48.132;11.366;2023-10-09T07:01:24;16.40;99.90
8043;DHT22;4064;48.132;11.366;2023-10-09T07:04:16;16.50;99.90
8043;DHT22;4064;48.132;11.366;2023-10-09T07:06:49;16.90;99.90
8043;DHT22;4064;48.132;11.366;2023-10-09T07:09:28;17.60;99.90
8043;DHT22;4064;48.132;11.366;2023-10-09T07:12:32;18.70;99.90
8043;DHT22;4064;48.132;11.366;2023-10-09T07:15:21;18.70;99.90
8043;DHT22;4064;48.132;11.366;2023-10-09T07:18:10;18.30;99.90
8043;DHT22;4064;48.132;11.366;2023-10-09T07:20:48;18.00;99.90
8043;DHT22;4064;48.132;11.366;2023-10-09T07:23:25;17.80;99.90
8043;DHT22;4064;48.132;11.366;2023-10-09T07:26:05;17.70;99.90
8043;DHT22;4064;48.132;11.366;2023-10-09T07:28:50;17.70;99.90
8043;DHT22;4064;48.132;11.366;2023-10-09T07:31:26;17.60;99.90
8043;DHT22;4064;48.132;11.366;2023-10-09T07:34:05;17.60;99.90
8043;DHT22;4064;48.132;11.366;2023-10-09T07:36:50;17.60;99.90
8043;DHT22;4064;48.132;11.366;2023-10-09T07:39:22;17.70;99.90
8043;DHT22;4064;48.132;11.366;2023-10-09T07:41:51;18.00;99.90
8043;DHT22;4064;48.132;11.366;2023-10-09T07:44:41;18.00;99.90
8043;DHT22;4064;48.132;11.366;2023-10-09T07:47:20;18.30;99.90
8043;DHT22;4064;48.132;11.366;2023-10-09T07:49:58;18.70;99.90
8043;DHT22;4064;48.132;11.366;2023-10-09T07:52:44;18.70;99.90
8043;DHT22;4064;48.132;11.366;2023-10-09T07:55:13;18.70;99.90
8043;DHT22;4064;48.132;11.366;2023-10-09T07:57:53;18.80;99.80
8043;DHT22;4064;48.132;11.366;2023-10-09T08:00:18;19.00;99.40
8043;DHT22;4064;48.132;11.366;2023-10-09T08:03:14;19.10;99.90
8043;DHT22;4064;48.132;11.366;2023-10-09T08:05:50;19.50;99.00
8043;DHT22;4064;48.132;11.366;2023-10-09T08:08:18;19.90;97.90
8043;DHT22;4064;48.132;11.366;2023-10-09T08:10:59;20.40;97.30
8043;DHT22;4064;48.132;11.366;2023-10-09T08:13:43;20.40;97.90
8043;DHT22;4064;48.132;11.366;2023-10-09T08:16:15;20.30;99.10
8043;DHT22;4064;48.132;11.366;2023-10-09T08:18:47;20.20;97.80
8043;DHT22;4064;48.132;11.366;2023-10-09T08:21:19;20.10;97.50
8043;DHT22;4064;48.132;11.366;2023-10-09T08:24:09;20.10;96.70
8043;DHT22;4064;48.132;11.366;2023-10-09T08:26:54;20.50;97.40
8043;DHT22;4064;48.132;11.366;2023-10-09T08:29:40;21.10;97.00
8043;DHT22;4064;48.132;11.366;2023-10-09T08:32:12;21.60;96.60
8043;DHT22;4064;48.132;11.366;2023-10-09T08:34:43;22.00;95.80
8043;DHT22;4064;48.132;11.366;2023-10-09T08:37:19;22.10;94.00
8043;DHT22;4064;48.132;11.366;2023-10-09T08:39:45;22.30;94.10
8043;DHT22;4064;48.132;11.366;2023-10-09T08:42:13;22.00;93.30
8043;DHT22;4064;48.132;11.366;2023-10-09T08:44:42;21.60;92.70
8043;DHT22;4064;48.132;11.366;2023-10-09T08:47:10;21.30;93.00
8043;DHT22;4064;48.132;11.366;2023-10-09T08:49:38;21.30;93.60
8043;DHT22;4064;48.132;11.366;2023-10-09T08:52:04;21.10;93.30
8043;DHT22;4064;48.132;11.366;2023-10-09T08:54:30;20.80;93.20
8043;DHT22;4064;48.132;11.366;2023-10-09T08:56:58;20.80;93.60
8043;DHT22;4064;48.132;11.366;2023-10-09T08:59:24;20.70;94.90
8043;DHT22;4064;48.132;11.366;2023-10-09T09:01:53;20.60;94.00
8043;DHT22;4064;48.132;11.366;2023-10-09T09:04:41;20.60;93.60
8043;DHT22;4064;48.132;11.366;2023-10-09T09:07:28;20.60;95.00
8043;DHT22;4064;48.132;11.366;2023-10-09T09:10:00;20.50;94.00
8043;DHT22;4064;48.132;11.366;2023-10-09T09:12:43;20.50;93.80
8043;DHT22;4064;48.132;11.366;2023-10-09T09:15:16;20.60;94.40
8043;DHT22;4064;48.132;11.366;2023-10-09T09:18:06;20.60;93.40
8043;DHT22;4064;48.132;11.366;2023-10-09T09:21:19;20.70;94.70
8043;DHT22;4064;48.132;11.366;2023-10-09T09:23:55;20.70;93.20
8043;DHT22;4064;48.132;11.366;2023-10-09T09:26:39;20.70;93.30
8043;DHT22;4064;48.132;11.366;2023-10-09T09:29:15;20.70;93.10
8043;DHT22;4064;48.132;11.366;2023-10-09T09:31:59;20.70;93.20
8043;DHT22;4064;48.132;11.366;2023-10-09T09:34:44;20.80;92.90
8043;DHT22;4064;48.132;11.366;2023-10-09T09:37:19;20.90;93.60
8043;DHT22;4064;48.132;11.366;2023-10-09T09:39:47;20.90;92.30
8043;DHT22;4064;48.132;11.366;2023-10-09T09:42:18;21.00;92.30
8043;DHT22;4064;48.132;11.366;2023-10-09T09:44:51;21.00;93.20
8043;DHT22;4064;48.132;11.366;2023-10-09T09:47:17;21.00;92.80
8043;DHT22;4064;48.132;11.366;2023-10-09T09:49:51;21.00;92.40
8043;DHT22;4064;48.132;11.366;2023-10-09T09:52:30;21.00;92.50
8043;DHT22;4064;48.132;11.366;2023-10-09T09:55:04;21.00;91.90
8043;DHT22;4064;48.132;11.366;2023-10-09T09:57:30;21.00;92.30
8043;DHT22;4064;48.132;11.366;2023-10-09T09:59:58;21.00;92.70
8043;DHT22;4064;48.132;11.366;2023-10-09T10:02:35;21.00;91.60
8043;DHT22;4064;48.132;11.366;2023-10-09T10:05:05;20.90;91.30
8043;DHT22;4064;48.132;11.366;2023-10-09T10:07:34;21.00;92.60
8043;DHT22;4064;48.132;11.366;2023-10-09T10:10:35;21.00;91.90
8043;DHT22;4064;48.132;11.366;2023-10-09T10:13:03;21.10;90.60
8043;DHT22;4064;48.132;11.366;2023-10-09T10:15:57;21.20;92.10
8043;DHT22;4064;48.132;11.366;2023-10-09T10:18:30;21.30;92.80
8043;DHT22;4064;48.132;11.366;2023-10-09T10:21:14;21.40;90.60
8043;DHT22;4064;48.132;11.366;2023-10-09T10:23:44;21.40;90.60
8043;DHT22;4064;48.132;11.366;2023-10-09T10:26:22;21.50;90.50
8043;DHT22;4064;48.132;11.366;2023-10-09T10:34:26;22.00;86.00
8043;DHT22;4064;48.132;11.366;2023-10-09T10:36:53;22.10;86.10
8043;DHT22;4064;48.132;11.366;2023-10-09T10:39:33;22.10;84.70
8043;DHT22;4064;48.132;11.366;2023-10-09T10:42:14;22.10;84.80
8043;DHT22;4064;48.132;11.366;2023-10-09T10:44:58;21.90;84.70
8043;DHT22;4064;48.132;11.366;2023-10-09T10:47:27;22.00;86.30
8043;DHT22;4064;48.132;11.366;2023-10-09T10:50:02;22.00;84.40
8043;DHT22;4064;48.132;11.366;2023-10-09T10:56:01;22.10;85.40
8043;DHT22;4064;48.132;11.366;2023-10-09T10:58:41;22.10;84.70
8043;DHT22;4064;48.132;11.366;2023-10-09T11:01:19;22.20;84.50
8043;DHT22;4064;48.132;11.366;2023-10-09T11:03:48;22.30;85.00
8043;DHT22;4064;48.132;11.366;2023-10-09T11:06:30;22.60;82.80
8043;DHT22;4064;48.132;11.366;2023-10-09T11:09:03;22.80;81.90
8043;DHT22;4064;48.132;11.366;2023-10-09T11:11:36;22.80;82.30
8043;DHT22;4064;48.132;11.366;2023-10-09T11:14:13;23.00;80.40
8043;DHT22;4064;48.132;11.366;2023-10-09T11:16:49;23.30;79.30
8043;DHT22;4064;48.132;11.366;2023-10-09T11:19:19;23.50;78.10
8043;DHT22;4064;48.132;11.366;2023-10-09T11:21:57;23.80;76.30
8043;DHT22;4064;48.132;11.366;2023-10-09T11:24:28;24.20;77.50
8043;DHT22;4064;48.132;11.366;2023-10-09T11:26:59;24.20;74.00
8043;DHT22;4064;48.132;11.366;2023-10-09T11:29:31;24.00;73.70
8043;DHT22;4064;48.132;11.366;2023-10-09T11:34:32;24.50;70.30
8043;DHT22;4064;48.132;11.366;2023-10-09T11:37:02;24.50;70.50
8043;DHT22;4064;48.132;11.366;2023-10-09T11:39:30;24.60;69.60
8043;DHT22;4064;48.132;11.366;2023-10-09T11:42:07;24.80;68.70
8043;DHT22;4064;48.132;11.366;2023-10-09T11:44:40;24.90;69.40
8043;DHT22;4064;48.132;11.366;2023-10-09T11:47:11;24.60;66.10
8043;DHT22;4064;48.132;11.366;2023-10-09T11:49:56;24.40;67.90
8043;DHT22;4064;48.132;11.366;2023-10-09T11:52:28;24.20;69.40
8043;DHT22;4064;48.132;11.366;2023-10-09T11:54:58;23.80;66.10
8043;DHT22;4064;48.132;11.366;2023-10-09T11:57:25;23.70;67.20
8043;DHT22;4064;48.132;11.366;2023-10-09T11:59:57;23.70;66.20
8043;DHT22;4064;48.132;11.366;2023-10-09T12:02:23;23.70;66.10
8043;DHT22;4064;48.132;11.366;2023-10-09T12:04:49;23.90;67.40
8043;DHT22;4064;48.132;11.366;2023-10-09T12:07:14;23.80;66.90
8043;DHT22;4064;48.132;11.366;2023-10-09T12:09:40;23.70;67.80
8043;DHT22;4064;48.132;11.366;2023-10-09T12:12:07;23.50;66.20
8043;DHT22;4064;48.132;11.366;2023-10-09T12:14:36;23.40;65.80
8043;DHT22;4064;48.132;11.366;2023-10-09T12:17:07;23.20;67.80
8043;DHT22;4064;48.132;11.366;2023-10-09T12:19:33;23.00;66.90
8043;DHT22;4064;48.132;11.366;2023-10-09T12:21:59;22.80;66.20
8043;DHT22;4064;48.132;11.366;2023-10-09T12:24:30;22.80;66.10
8043;DHT22;4064;48.132;11.366;2023-10-09T12:26:56;22.70;67.70
8043;DHT22;4064;48.132;11.366;2023-10-09T12:29:23;22.60;68.70
8043;DHT22;4064;48.132;11.366;2023-10-09T12:31:50;22.50;66.90
8043;DHT22;4064;48.132;11.366;2023-10-09T12:34:30;22.40;67.90
8043;DHT22;4064;48.132;11.366;2023-10-09T12:36:59;22.30;69.20
8043;DHT22;4064;48.132;11.366;2023-10-09T12:39:28;22.10;68.30
8043;DHT22;4064;48.132;11.366;2023-10-09T12:42:00;22.10;69.50
8043;DHT22;4064;48.132;11.366;2023-10-09T12:44:35;22.10;71.00
8043;DHT22;4064;48.132;11.366;2023-10-09T12:47:08;22.00;68.50
8043;DHT22;4064;48.132;11.366;2023-10-09T12:49:36;21.90;69.40
8043;DHT22;4064;48.132;11.366;2023-10-09T12:52:07;21.80;70.00
8043;DHT22;4064;48.132;11.366;2023-10-09T12:54:42;21.80;69.60
8043;DHT22;4064;48.132;11.366;2023-10-09T12:57:09;21.70;69.70
8043;DHT22;4064;48.132;11.366;2023-10-09T12:59:40;21.60;70.90
8043;DHT22;4064;48.132;11.366;2023-10-09T13:02:13;21.60;72.60
8043;DHT22;4064;48.132;11.366;2023-10-09T13:04:59;21.50;74.30
8043;DHT22;4064;48.132;11.366;2023-10-09T13:07:25;21.40;73.00
8043;DHT22;4064;48.132;11.366;2023-10-09T13:09:51;21.40;74.10
8043;DHT22;4064;48.132;11.366;2023-10-09T13:12:37;21.30;72.50
8043;DHT22;4064;48.132;11.366;2023-10-09T13:15:12;21.30;73.00
8043;DHT22;4064;48.132;11.366;2023-10-09T13:17:39;21.20;73.50
8043;DHT22;4064;48.132;11.366;2023-10-09T13:20:05;21.20;73.40
8043;DHT22;4064;48.132;11.366;2023-10-09T13:22:44;21.20;73.00
8043;DHT22;4064;48.132;11.366;2023-10-09T13:25:13;21.20;72.70
8043;DHT22;4064;48.132;11.366;2023-10-09T13:27:45;21.20;74.70
8043;DHT22;4064;48.132;11.366;2023-10-09T13:30:20;21.10;73.40
8043;DHT22;4064;48.132;11.366;2023-10-09T13:32:52;21.20;74.10
8043;DHT22;4064;48.132;11.366;2023-10-09T13:35:18;21.20;74.00
8043;DHT22;4064;48.132;11.366;2023-10-09T13:37:47;21.20;73.00
8043;DHT22;4064;48.132;11.366;2023-10-09T13:40:22;21.20;75.90
8043;DHT22;4064;48.132;11.366;2023-10-09T13:42:56;21.20;74.20
8043;DHT22;4064;48.132;11.366;2023-10-09T13:45:25;21.20;74.50
8043;DHT22;4064;48.132;11.366;2023-10-09T13:47:56;21.20;74.50
8043;DHT22;4064;48.132;11.366;2023-10-09T13:50:25;21.00;75.80
8043;DHT22;4064;48.132;11.366;2023-10-09T13:52:57;20.90;76.10
8043;DHT22;4064;48.132;11.366;2023-10-09T13:55:23;20.80;76.30
8043;DHT22;4064;48.132;11.366;2023-10-09T13:57:57;20.70;81.00
8043;DHT22;4064;48.132;11.366;2023-10-09T14:00:23;20.40;83.60
8043;DHT22;4064;48.132;11.366;2023-10-09T14:03:07;20.20;88.50
8043;DHT22;4064;48.132;11.366;2023-10-09T14:05:45;20.00;90.40
8043;DHT22;4064;48.132;11.366;2023-10-09T14:08:35;19.80;90.30
8043;DHT22;4064;48.132;11.366;2023-10-09T14:11:10;19.90;86.40
8043;DHT22;4064;48.132;11.366;2023-10-09T14:13:42;19.90;86.40
8043;DHT22;4064;48.132;11.366;2023-10-09T14:16:08;20.00;84.20
8043;DHT22;4064;48.132;11.366;2023-10-09T14:18:58;20.00;83.20
8043;DHT22;4064;48.132;11.366;2023-10-09T14:21:29;20.00;82.80
8043;DHT22;4064;48.132;11.366;2023-10-09T14:23:58;20.00;85.20
8043;DHT22;4064;48.132;11.366;2023-10-09T14:26:25;20.00;86.30
8043;DHT22;4064;48.132;11.366;2023-10-09T14:28:51;20.00;87.50
8043;DHT22;4064;48.132;11.366;2023-10-09T14:31:18;20.00;84.90
8043;DHT22;4064;48.132;11.366;2023-10-09T14:33:51;20.00;82.90
8043;DHT22;4064;48.132;11.366;2023-10-09T14:36:19;20.10;82.60
8043;DHT22;4064;48.132;11.366;2023-10-09T14:38:50;20.10;84.00
8043;DHT22;4064;48.132;11.366;2023-10-09T14:41:21;20.00;84.20
8043;DHT22;4064;48.132;11.366;2023-10-09T14:43:51;20.10;86.50
8043;DHT22;4064;48.132;11.366;2023-10-09T14:46:20;20.10;85.10
8043;DHT22;4064;48.132;11.366;2023-10-09T14:48:54;20.00;87.10
8043;DHT22;4064;48.132;11.366;2023-10-09T14:51:21;19.90;86.30
8043;DHT22;4064;48.132;11.366;2023-10-09T14:53:59;20.00;86.70
8043;DHT22;4064;48.132;11.366;2023-10-09T14:56:29;20.00;89.30
8043;DHT22;4064;48.132;11.366;2023-10-09T14:58:59;19.90;92.10
8043;DHT22;4064;48.132;11.366;2023-10-09T15:01:25;19.90;89.60
8043;DHT22;4064;48.132;11.366;2023-10-09T15:03:55;19.90;90.20
8043;DHT22;4064;48.132;11.366;2023-10-09T15:06:23;19.80;90.50
8043;DHT22;4064;48.132;11.366;2023-10-09T15:08:49;19.70;92.50
8043;DHT22;4064;48.132;11.366;2023-10-09T15:11:15;19.60;92.90
8043;DHT22;4064;48.132;11.366;2023-10-09T15:13:41;19.50;91.50
8043;DHT22;4064;48.132;11.366;2023-10-09T15:16:06;19.60;91.90
8043;DHT22;4064;48.132;11.366;2023-10-09T15:18:32;19.50;91.80
8043;DHT22;4064;48.132;11.366;2023-10-09T15:20:59;19.60;91.70
8043;DHT22;4064;48.132;11.366;2023-10-09T15:23:25;19.50;91.80
8043;DHT22;4064;48.132;11.366;2023-10-09T15:25:51;19.50;90.90
8043;DHT22;4064;48.132;11.366;2023-10-09T15:28:19;19.50;93.30
8043;DHT22;4064;48.132;11.366;2023-10-09T15:30:45;19.40;92.70
8043;DHT22;4064;48.132;11.366;2023-10-09T15:33:14;19.50;92.70
8043;DHT22;4064;48.132;11.366;2023-10-09T15:35:45;19.40;92.50
8043;DHT22;4064;48.132;11.366;2023-10-09T15:38:12;19.50;91.90
8043;DHT22;4064;48.132;11.366;2023-10-09T15:40:39;19.50;90.90
8043;DHT22;4064;48.132;11.366;2023-10-09T15:43:09;19.70;90.40
8043;DHT22;4064;48.132;11.366;2023-10-09T15:45:41;19.70;90.30
8043;DHT22;4064;48.132;11.366;2023-10-09T15:48:07;19.80;90.20
8043;DHT22;4064;48.132;11.366;2023-10-09T15:50:33;19.80;90.20
8043;DHT22;4064;48.132;11.366;2023-10-09T15:53:00;19.70;90.00
8043;DHT22;4064;48.132;11.366;2023-10-09T15:55:27;19.70;90.20
8043;DHT22;4064;48.132;11.366;2023-10-09T15:57:53;19.60;91.40
8043;DHT22;4064;48.132;11.366;2023-10-09T16:00:21;19.50;91.60
8043;DHT22;4064;48.132;11.366;2023-10-09T16:02:49;19.40;90.90
8043;DHT22;4064;48.132;11.366;2023-10-09T16:05:18;19.50;91.10
8043;DHT22;4064;48.132;11.366;2023-10-09T16:07:44;19.40;90.80
8043;DHT22;4064;48.132;11.366;2023-10-09T16:10:10;19.40;90.70
8043;DHT22;4064;48.132;11.366;2023-10-09T16:12:38;19.40;91.00
8043;DHT22;4064;48.132;11.366;2023-10-09T16:15:04;19.40;91.20
8043;DHT22;4064;48.132;11.366;2023-10-09T16:17:34;19.30;91.30
8043;DHT22;4064;48.132;11.366;2023-10-09T16:20:00;19.30;91.40
8043;DHT22;4064;48.132;11.366;2023-10-09T16:22:28;19.20;91.40
8043;DHT22;4064;48.132;11.366;2023-10-09T16:24:59;19.20;91.40
8043;DHT22;4064;48.132;11.366;2023-10-09T16:27:25;19.10;91.50
8043;DHT22;4064;48.132;11.366;2023-10-09T16:29:53;19.00;91.80
8043;DHT22;4064;48.132;11.366;2023-10-09T16:32:19;19.00;92.10
8043;DHT22;4064;48.132;11.366;2023-10-09T16:34:50;19.00;91.90
8043;DHT22;4064;48.132;11.366;2023-10-09T16:37:16;19.00;91.70
8043;DHT22;4064;48.132;11.366;2023-10-09T16:39:43;19.00;91.60
8043;DHT22;4064;48.132;11.366;2023-10-09T16:42:10;19.00;91.60
8043;DHT22;4064;48.132;11.366;2023-10-09T16:44:36;18.90;91.60
8043;DHT22;4064;48.132;11.366;2023-10-09T16:47:03;18.90;91.60
8043;DHT22;4064;48.132;11.366;2023-10-09T16:59:50;18.90;91.80
8043;DHT22;4064;48.132;11.366;2023-10-09T17:02:17;18.80;91.70